Time;durP1;ratioP1;P1;durP2;ratioP2;P2;SDS_P1;SDS_P2;PMS_P1;PMS_P2;Temp;Humidity;BMP_temperature;BMP_pressure;BME280_temperature;BME280_humidity;BME280_pressure;Samples;Min_cycle;Max_cycle;Signal;HPM_P1;HPM_P2
2022/01/31 00:01:41;;;;;;;13.33;3.40;;;;;;;6.40;61.79;101137.41;5097612;28;20237;-67
2022/01/31 00:04:09;;;;;;;15.30;3.20;;;;;;;5.95;62.78;101136.09;5095870;28;20207;-66
2022/01/31 00:06:38;;;;;;;16.80;2.87;;;;;;;6.05;63.08;101133.69;5113161;27;20248;-67
2022/01/31 00:09:12;;;;;;;12.10;3.43;;;;;;;6.10;62.75;101115.78;5104389;28;20280;-66
2022/01/31 00:11:43;;;;;;;15.53;3.43;;;;;;;5.84;63.23;101103.50;5103714;27;20288;-67
2022/01/31 00:14:26;;;;;;;21.97;3.40;;;;;;;6.04;62.80;101103.03;5111922;28;20212;-66
2022/01/31 00:16:57;;;;;;;9.87;2.90;;;;;;;6.00;62.88;101096.28;5110778;27;20193;-67
2022/01/31 00:19:25;;;;;;;13.07;3.50;;;;;;;5.99;62.84;101079.63;5100602;27;20550;-66
2022/01/31 00:21:55;;;;;;;14.47;3.20;;;;;;;5.82;63.41;101072.00;5104241;27;20309;-67
2022/01/31 00:24:22;;;;;;;15.17;3.47;;;;;;;5.98;62.84;101085.84;5108271;27;20290;-67
2022/01/31 00:26:50;;;;;;;15.50;3.70;;;;;;;6.18;62.22;101083.66;5106712;27;20276;-66
2022/01/31 00:29:18;;;;;;;15.87;4.03;;;;;;;6.15;62.45;101063.66;5111578;28;20220;-66
2022/01/31 00:31:46;;;;;;;10.27;2.53;;;;;;;6.11;62.32;101042.91;5112023;27;20228;-67
2022/01/31 00:34:14;;;;;;;8.73;3.03;;;;;;;6.03;62.58;101035.53;5113277;27;20296;-68
2022/01/31 00:36:41;;;;;;;14.80;3.30;;;;;;;6.18;62.24;101020.44;5110462;27;20207;-67
2022/01/31 00:39:10;;;;;;;21.83;3.60;;;;;;;6.40;61.48;101008.31;5109550;27;20305;-67
2022/01/31 00:41:39;;;;;;;10.40;3.33;;;;;;;6.39;61.83;101003.16;5112193;27;20651;-67
2022/01/31 00:44:17;;;;;;;12.27;3.30;;;;;;;6.23;61.93;101003.41;5111496;28;20259;-67
2022/01/31 00:46:51;;;;;;;12.50;3.30;;;;;;;6.09;62.80;101000.88;5106161;28;20229;-67
2022/01/31 00:49:33;;;;;;;11.30;3.30;;;;;;;5.89;63.22;100993.53;5097115;27;20725;-65
2022/01/31 00:52:02;;;;;;;12.27;2.90;;;;;;;5.92;62.84;100974.88;5115572;27;20285;-66
2022/01/31 00:54:31;;;;;;;10.17;3.27;;;;;;;6.15;62.40;100963.59;5120624;27;20279;-66
2022/01/31 00:56:59;;;;;;;16.60;4.00;;;;;;;6.26;62.00;100937.31;5111543;27;20202;-67
2022/01/31 00:59:27;;;;;;;13.80;4.70;;;;;;;5.79;63.01;100914.31;5108418;28;20289;-66
2022/01/31 01:01:55;;;;;;;11.83;3.37;;;;;;;6.22;62.49;100906.91;5108585;27;20709;-66
2022/01/31 01:04:23;;;;;;;11.43;3.43;;;;;;;5.59;64.36;100886.75;5112385;27;20206;-66
2022/01/31 01:06:51;;;;;;;13.00;3.37;;;;;;;5.66;64.69;100868.75;5106801;27;20283;-67
2022/01/31 01:09:18;;;;;;;16.20;3.43;;;;;;;5.44;65.28;100860.66;5107920;28;20213;-66
2022/01/31 01:11:47;;;;;;;14.47;3.50;;;;;;;5.56;65.57;100865.06;5099009;28;20207;-67
2022/01/31 01:14:15;;;;;;;14.10;3.07;;;;;;;5.37;65.81;100868.13;5099388;27;20243;-67
2022/01/31 01:16:43;;;;;;;12.03;3.53;;;;;;;4.98;67.12;100841.94;5108118;27;20701;-66
2022/01/31 01:19:11;;;;;;;10.73;3.27;;;;;;;4.51;68.83;100828.38;5110953;27;20217;-67
2022/01/31 01:21:39;;;;;;;13.27;3.33;;;;;;;4.73;68.15;100812.03;5093974;28;20261;-67
2022/01/31 01:24:07;;;;;;;14.33;3.57;;;;;;;4.50;69.16;100816.19;5100800;28;20682;-67
2022/01/31 01:26:35;;;;;;;13.47;3.23;;;;;;;5.08;67.55;100824.59;5101999;27;20554;-66
2022/01/31 01:29:04;;;;;;;11.30;3.33;;;;;;;4.94;67.54;100804.47;5107327;27;20605;-67
2022/01/31 01:31:31;;;;;;;18.43;4.17;;;;;;;4.27;70.19;100795.00;5112757;27;20304;-66
2022/01/31 01:33:59;;;;;;;13.47;3.53;;;;;;;4.37;69.78;100801.34;5098312;27;20214;-66
2022/01/31 01:36:28;;;;;;;11.37;3.63;;;;;;;4.63;68.86;100789.97;5098765;28;20226;-66
2022/01/31 01:38:55;;;;;;;10.97;3.03;;;;;;;4.68;69.03;100777.34;5110154;27;20255;-66
2022/01/31 01:41:23;;;;;;;16.37;3.67;;;;;;;4.09;71.41;100768.16;5112685;27;20244;-66
2022/01/31 01:43:51;;;;;;;16.00;3.40;;;;;;;4.26;71.27;100748.69;5107893;27;20216;-66
2022/01/31 01:46:20;;;;;;;13.03;3.73;;;;;;;4.47;70.16;100742.03;5102199;28;20309;-66
2022/01/31 01:48:48;;;;;;;10.40;3.50;;;;;;;4.35;70.24;100724.47;5101807;28;20224;-67
2022/01/31 01:51:16;;;;;;;15.10;4.00;;;;;;;4.27;70.92;100713.63;5098859;28;20216;-66
2022/01/31 01:53:44;;;;;;;15.37;4.10;;;;;;;3.95;72.27;100692.97;5100320;27;20221;-66
2022/01/31 01:56:13;;;;;;;9.67;3.47;;;;;;;4.29;70.97;100681.09;5101373;28;20593;-67
2022/01/31 01:58:43;;;;;;;16.30;3.73;;;;;;;3.98;72.30;100684.88;5113820;27;20221;-67
2022/01/31 02:01:13;;;;;;;8.57;2.57;;;;;;;4.29;71.54;100669.75;5103618;27;20335;-66
2022/01/31 02:03:42;;;;;;;11.53;3.23;;;;;;;4.60;70.48;100663.22;5100996;28;20643;-66
2022/01/31 02:06:10;;;;;;;16.80;3.67;;;;;;;4.26;71.42;100634.03;5106035;28;20624;-67
2022/01/31 02:08:43;;;;;;;23.30;3.97;;;;;;;4.79;70.30;100653.97;5105092;28;20223;-67
2022/01/31 02:11:12;;;;;;;14.33;3.67;;;;;;;4.68;70.44;100646.00;5113799;27;20296;-68
2022/01/31 02:13:40;;;;;;;11.10;3.00;;;;;;;4.63;70.55;100637.59;5105186;28;20208;-67
2022/01/31 02:16:09;;;;;;;22.83;3.57;;;;;;;4.68;70.45;100629.41;5107417;28;20571;-67
2022/01/31 02:18:45;;;;;;;12.17;3.50;;;;;;;4.61;70.65;100622.88;5107565;28;20213;-67
2022/01/31 02:21:14;;;;;;;15.87;3.10;;;;;;;5.02;69.35;100606.84;5110438;27;20734;-67
2022/01/31 02:23:42;;;;;;;15.57;2.87;;;;;;;5.11;68.74;100604.38;5100951;27;20730;-67
2022/01/31 02:26:09;;;;;;;13.50;3.10;;;;;;;5.22;68.25;100608.88;5109959;28;20226;-67
2022/01/31 02:28:38;;;;;;;14.40;3.53;;;;;;;5.30;68.00;100575.81;5107867;27;20216;-66
2022/01/31 02:31:06;;;;;;;9.13;3.20;;;;;;;5.07;69.16;100562.69;5104216;27;20644;-65
2022/01/31 02:33:35;;;;;;;12.27;3.20;;;;;;;4.78;69.96;100546.38;5102737;27;20714;-66
2022/01/31 02:36:05;;;;;;;14.40;3.33;;;;;;;4.90;69.65;100514.81;5098335;28;20288;-66
2022/01/31 02:38:34;;;;;;;15.73;3.37;;;;;;;4.76;70.38;100507.06;5112353;27;20312;-66
2022/01/31 02:41:02;;;;;;;13.23;3.37;;;;;;;5.04;69.24;100521.69;5099311;28;20208;-67
2022/01/31 02:43:32;;;;;;;15.60;3.40;;;;;;;5.16;68.70;100507.66;5107504;27;20461;-67
2022/01/31 02:46:01;;;;;;;10.97;2.60;;;;;;;4.93;69.30;100485.66;5106703;28;20300;-67
2022/01/31 02:48:34;;;;;;;10.77;2.83;;;;;;;4.55;70.68;100471.84;5101735;28;20202;-67
2022/01/31 02:51:08;;;;;;;14.47;2.70;;;;;;;4.50;71.06;100489.69;5105102;28;20216;-67
2022/01/31 02:53:41;;;;;;;11.93;2.93;;;;;;;4.79;70.43;100493.72;5102746;27;20278;-67
2022/01/31 02:56:09;;;;;;;12.90;2.80;;;;;;;5.15;69.04;100523.53;5105903;27;20216;-67
2022/01/31 02:58:37;;;;;;;12.87;3.07;;;;;;;5.16;68.91;100526.06;5115808;27;20224;-67
2022/01/31 03:01:05;;;;;;;20.63;3.00;;;;;;;5.21;68.98;100533.59;5102121;27;20627;-67
2022/01/31 03:03:33;;;;;;;16.57;3.00;;;;;;;5.15;69.82;100518.28;5111185;27;20671;-67
2022/01/31 03:06:01;;;;;;;12.57;3.20;;;;;;;5.03;69.88;100503.38;5099959;27;20264;-67
2022/01/31 03:08:30;;;;;;;11.70;2.87;;;;;;;5.35;68.80;100508.94;5098854;27;20675;-67
2022/01/31 03:10:59;;;;;;;13.57;2.73;;;;;;;5.10;69.46;100494.13;5110302;27;20704;-67
2022/01/31 03:13:27;;;;;;;14.07;3.30;;;;;;;5.11;69.58;100491.38;5105050;27;20630;-67
2022/01/31 03:15:56;;;;;;;10.43;2.83;;;;;;;5.59;68.15;100507.09;5106425;28;20251;-65
2022/01/31 03:18:24;;;;;;;19.93;3.77;;;;;;;5.59;68.15;100493.94;5109565;27;20220;-65
2022/01/31 03:20:52;;;;;;;16.33;3.33;;;;;;;5.47;68.66;100498.31;5103723;28;20211;-65
2022/01/31 03:23:19;;;;;;;13.33;3.80;;;;;;;5.70;68.03;100487.88;5096244;28;20758;-65
2022/01/31 03:25:47;;;;;;;8.27;2.83;;;;;;;5.65;68.06;100481.16;5098382;27;20603;-65
2022/01/31 03:28:16;;;;;;;15.27;3.33;;;;;;;5.89;67.19;100477.66;5115598;27;20300;-65
2022/01/31 03:30:44;;;;;;;11.43;2.90;;;;;;;5.86;67.04;100462.91;5106462;27;20206;-66
2022/01/31 03:33:12;;;;;;;15.63;3.20;;;;;;;5.59;67.44;100455.31;5108696;27;20904;-66
2022/01/31 03:35:40;;;;;;;10.53;2.67;;;;;;;5.58;67.75;100444.91;5101926;28;20672;-66
2022/01/31 03:38:07;;;;;;;12.40;2.73;;;;;;;5.80;67.00;100429.16;5103361;27;20213;-66
2022/01/31 03:40:35;;;;;;;16.13;2.77;;;;;;;5.62;66.77;100428.78;5104389;27;20656;-66
2022/01/31 03:43:03;;;;;;;13.60;2.80;;;;;;;5.95;66.19;100403.47;5103401;27;20222;-66
2022/01/31 03:45:34;;;;;;;11.30;2.47;;;;;;;5.95;66.22;100395.56;5095178;28;20528;-66
2022/01/31 03:48:05;;;;;;;9.73;2.80;;;;;;;5.71;67.26;100376.41;5103684;27;20204;-66
2022/01/31 03:50:33;;;;;;;14.73;3.30;;;;;;;5.85;66.99;100355.13;5108730;28;20283;-66
2022/01/31 03:53:01;;;;;;;11.43;2.43;;;;;;;5.87;66.99;100347.94;5102856;28;20206;-67
2022/01/31 03:55:29;;;;;;;16.60;3.07;;;;;;;5.77;67.57;100344.34;5107946;28;20306;-68
2022/01/31 03:57:56;;;;;;;12.33;3.07;;;;;;;5.89;66.87;100330.28;5094264;28;20336;-67
2022/01/31 04:00:25;;;;;;;12.40;3.40;;;;;;;5.88;67.11;100318.06;5091470;28;20239;-67
2022/01/31 04:02:54;;;;;;;15.27;3.53;;;;;;;5.58;68.16;100287.91;5104040;28;20222;-67
2022/01/31 04:05:22;;;;;;;15.97;3.20;;;;;;;5.86;67.35;100297.09;5108018;28;20638;-67
2022/01/31 04:07:50;;;;;;;15.63;3.33;;;;;;;5.77;67.51;100284.69;5107560;28;20296;-67
2022/01/31 04:10:17;;;;;;;13.77;3.83;;;;;;;6.10;66.80;100296.97;5109115;28;20331;-67
2022/01/31 04:12:45;;;;;;;17.13;3.10;;;;;;;6.16;66.16;100296.44;5108228;28;20617;-66
2022/01/31 04:15:13;;;;;;;8.40;2.57;;;;;;;6.29;65.78;100291.88;5104085;28;20207;-66
2022/01/31 04:17:41;;;;;;;17.13;3.90;;;;;;;6.10;66.31;100281.16;5107894;28;20221;-67
2022/01/31 04:20:11;;;;;;;12.90;3.53;;;;;;;6.01;67.12;100260.84;5102854;28;20302;-67
2022/01/31 04:22:46;;;;;;;17.43;3.70;;;;;;;6.17;66.65;100253.38;5105791;28;20938;-67
2022/01/31 04:25:27;;;;;;;12.73;3.43;;;;;;;6.16;66.76;100237.69;5106864;28;20309;-67
2022/01/31 04:28:04;;;;;;;11.40;3.93;;;;;;;5.89;67.83;100225.81;5104104;28;20644;-67
2022/01/31 04:30:35;;;;;;;17.83;3.83;;;;;;;5.92;68.01;100212.41;5106501;28;20305;-67
2022/01/31 04:33:03;;;;;;;15.70;3.83;;;;;;;6.15;67.37;100200.03;5106029;28;20216;-68
2022/01/31 04:35:32;;;;;;;13.27;3.60;;;;;;;6.07;67.78;100188.47;5107307;28;20632;-67
2022/01/31 04:38:00;;;;;;;17.53;3.80;;;;;;;6.18;67.50;100183.97;5100086;28;20221;-66
2022/01/31 04:40:28;;;;;;;15.20;3.70;;;;;;;5.86;68.13;100172.59;5102663;28;20211;-66
2022/01/31 04:42:56;;;;;;;17.10;4.00;;;;;;;5.96;67.76;100168.28;5101387;28;20761;-66
2022/01/31 04:45:23;;;;;;;14.07;3.30;;;;;;;5.90;67.99;100174.03;5104452;27;20212;-67
2022/01/31 04:47:51;;;;;;;9.83;2.87;;;;;;;5.93;68.15;100163.25;5099635;27;20214;-67
2022/01/31 04:50:19;;;;;;;21.10;3.47;;;;;;;6.19;67.26;100148.78;5104898;27;20253;-66
2022/01/31 04:52:48;;;;;;;10.30;3.03;;;;;;;6.26;66.82;100139.41;5104503;27;20214;-66
2022/01/31 04:55:15;;;;;;;12.27;2.90;;;;;;;6.12;67.26;100141.53;5110555;27;20298;-66
2022/01/31 04:57:43;;;;;;;13.57;3.13;;;;;;;6.06;67.49;100121.81;5112226;27;20204;-67
2022/01/31 05:00:12;;;;;;;16.00;2.67;;;;;;;6.16;67.35;100117.44;5109130;27;20235;-67
2022/01/31 05:02:40;;;;;;;14.20;3.50;;;;;;;6.16;67.63;100104.25;5106529;28;20220;-67
2022/01/31 05:05:08;;;;;;;15.87;3.60;;;;;;;6.19;68.61;100106.66;5102864;27;20212;-66
2022/01/31 05:07:36;;;;;;;17.70;4.00;;;;;;;6.12;70.01;100089.72;5105054;28;20209;-66
2022/01/31 05:10:05;;;;;;;11.07;3.07;;;;;;;5.81;72.17;100075.59;5109188;27;20651;-66
2022/01/31 05:12:33;;;;;;;13.07;3.20;;;;;;;5.80;72.92;100062.59;5108877;27;20650;-66
2022/01/31 05:15:01;;;;;;;14.03;3.47;;;;;;;5.87;73.32;100071.63;5109525;27;20247;-66
2022/01/31 05:17:29;;;;;;;14.80;3.80;;;;;;;5.85;73.90;100065.66;5115350;27;20222;-66
2022/01/31 05:19:57;;;;;;;11.73;3.20;;;;;;;5.79;74.25;100051.22;5109543;28;20234;-66
2022/01/31 05:22:24;;;;;;;12.20;3.20;;;;;;;5.65;74.79;100052.34;5106263;27;20290;-67
2022/01/31 05:24:52;;;;;;;12.70;2.70;;;;;;;5.54;75.68;100041.88;5102024;28;20217;-67
2022/01/31 05:27:22;;;;;;;10.07;2.77;;;;;;;5.65;75.37;100041.84;5104969;28;20233;-67
2022/01/31 05:29:49;;;;;;;13.93;3.17;;;;;;;5.65;75.76;100054.16;5111533;27;20199;-67
2022/01/31 05:32:17;;;;;;;13.70;3.77;;;;;;;5.64;75.96;100037.53;5110247;27;20217;-67
2022/01/31 05:34:45;;;;;;;12.83;3.27;;;;;;;5.74;75.73;100042.88;5111313;27;20581;-67
2022/01/31 05:37:14;;;;;;;12.30;2.97;;;;;;;5.75;75.88;100033.19;5110243;27;20211;-67
2022/01/31 05:39:43;;;;;;;13.60;3.17;;;;;;;5.91;75.47;100036.22;5106590;27;20237;-67
2022/01/31 05:42:11;;;;;;;15.23;3.40;;;;;;;5.83;75.55;100041.25;5115273;27;20210;-67
2022/01/31 05:44:42;;;;;;;11.13;3.37;;;;;;;5.53;77.52;100047.28;5109600;27;20283;-67
2022/01/31 05:47:10;;;;;;;9.73;2.60;;;;;;;5.49;77.92;100044.06;5111194;27;20224;-67
2022/01/31 05:49:38;;;;;;;8.50;2.67;;;;;;;5.45;78.89;100042.66;5112566;27;20207;-67
2022/01/31 05:52:07;;;;;;;12.97;3.60;;;;;;;5.35;79.60;100040.91;5109630;27;20231;-67
2022/01/31 05:54:38;;;;;;;12.03;3.07;;;;;;;5.42;78.96;100040.28;5111871;27;20210;-68
2022/01/31 05:57:07;;;;;;;15.37;4.00;;;;;;;5.34;79.98;100053.22;5111820;27;20246;-66
2022/01/31 05:59:35;;;;;;;9.27;2.97;;;;;;;5.48;78.78;100046.81;5113176;27;20218;-66
2022/01/31 06:02:05;;;;;;;12.20;3.67;;;;;;;5.57;78.21;100051.31;5109459;27;20209;-66
2022/01/31 06:04:33;;;;;;;10.37;3.00;;;;;;;5.51;78.66;100052.66;5100435;27;20230;-66
2022/01/31 06:07:01;;;;;;;9.67;3.07;;;;;;;5.56;78.82;100053.13;5112139;28;20203;-67
2022/01/31 06:09:31;;;;;;;9.27;2.80;;;;;;;5.63;78.14;100046.38;5110620;28;20242;-66
2022/01/31 06:12:02;;;;;;;8.37;2.77;;;;;;;5.65;78.02;100052.34;5110068;27;20209;-67
2022/01/31 06:14:30;;;;;;;9.47;2.93;;;;;;;5.64;78.09;100063.84;5111714;27;20422;-67
2022/01/31 06:16:57;;;;;;;8.13;2.60;;;;;;;5.58;78.66;100042.47;5110660;27;20234;-67
2022/01/31 06:19:27;;;;;;;5.93;2.40;;;;;;;5.49;79.54;100064.25;5112526;27;20209;-68
2022/01/31 06:21:55;;;;;;;5.90;1.80;;;;;;;5.54;78.97;100051.59;5107603;27;20653;-67
2022/01/31 06:24:23;;;;;;;6.50;2.20;;;;;;;5.53;79.42;100042.88;5112918;27;20222;-67
2022/01/31 06:26:51;;;;;;;4.53;1.90;;;;;;;5.53;79.45;100039.41;5110909;27;20223;-67
2022/01/31 06:29:19;;;;;;;5.77;2.17;;;;;;;5.44;79.69;100041.00;5108061;27;20206;-67
2022/01/31 06:31:46;;;;;;;7.30;2.30;;;;;;;5.57;78.68;100046.91;5110865;27;20206;-67
2022/01/31 06:34:14;;;;;;;8.50;2.03;;;;;;;5.64;78.73;100050.69;5115765;27;20225;-67
2022/01/31 06:36:43;;;;;;;7.30;1.90;;;;;;;5.55;78.62;100050.59;5110008;27;20947;-66
2022/01/31 06:39:11;;;;;;;4.83;1.50;;;;;;;5.49;78.62;100041.44;5108362;27;20237;-67
2022/01/31 06:41:39;;;;;;;4.40;1.63;;;;;;;5.55;78.52;100042.72;5110783;27;20206;-67
2022/01/31 06:44:07;;;;;;;5.33;1.80;;;;;;;5.56;78.48;100031.22;5111591;27;20223;-66
2022/01/31 06:46:35;;;;;;;4.73;1.80;;;;;;;5.35;79.33;100040.91;5107221;28;20211;-68
2022/01/31 06:49:02;;;;;;;5.03;1.37;;;;;;;5.57;78.47;100031.13;5107515;27;20567;-67
2022/01/31 06:51:30;;;;;;;6.10;1.60;;;;;;;5.63;78.13;100040.28;5106509;27;20238;-66
2022/01/31 06:54:00;;;;;;;6.40;1.40;;;;;;;5.45;78.67;100040.03;5108738;27;20290;-67
2022/01/31 06:56:30;;;;;;;3.07;1.10;;;;;;;5.74;77.74;100047.28;5109898;28;20742;-67
2022/01/31 06:59:00;;;;;;;3.70;1.17;;;;;;;5.79;77.38;100034.59;5107742;28;20617;-68
2022/01/31 07:01:28;;;;;;;4.87;1.33;;;;;;;5.60;77.57;100030.88;5107284;27;20239;-67
2022/01/31 07:03:57;;;;;;;4.03;1.57;;;;;;;5.53;77.80;100034.13;5108498;27;20210;-67
2022/01/31 07:06:25;;;;;;;3.47;1.30;;;;;;;5.61;77.57;100029.06;5100085;27;20214;-67
2022/01/31 07:08:54;;;;;;;4.43;1.52;;;;;;;5.86;76.59;100025.22;5107558;28;20492;-62
2022/01/31 07:11:27;;;;;;;4.10;1.20;;;;;;;5.71;77.02;100016.84;5109725;27;20274;-63
2022/01/31 07:14:03;;;;;;;2.90;1.17;;;;;;;5.50;77.78;100022.06;5101678;27;20207;-64
2022/01/31 07:16:31;;;;;;;3.67;1.20;;;;;;;5.73;76.66;100019.31;5098961;27;20207;-63
2022/01/31 07:19:05;;;;;;;3.13;1.30;;;;;;;5.53;77.48;100042.88;5096635;28;20214;-63
2022/01/31 07:21:37;;;;;;;2.83;1.30;;;;;;;5.62;77.45;100034.22;5098706;27;20234;-63
2022/01/31 07:24:18;;;;;;;3.93;1.70;;;;;;;5.75;76.82;100038.44;5108730;27;20233;-63
2022/01/31 07:26:49;;;;;;;3.97;1.40;;;;;;;5.64;77.05;100042.78;5107579;28;20317;-63
2022/01/31 07:29:19;;;;;;;4.10;1.43;;;;;;;5.65;77.12;100060.25;5106205;28;20210;-62
2022/01/31 07:31:48;;;;;;;3.13;1.37;;;;;;;5.65;77.12;100055.00;5109332;27;20252;-62
2022/01/31 07:34:17;;;;;;;2.83;1.30;;;;;;;5.63;77.52;100045.53;5110144;27;20211;-61
2022/01/31 07:36:46;;;;;;;3.33;1.30;;;;;;;5.78;76.61;100059.25;5106085;27;20239;-61
2022/01/31 07:39:14;;;;;;;3.97;1.10;;;;;;;5.70;76.96;100056.41;5097009;28;20655;-61
2022/01/31 07:41:42;;;;;;;4.20;1.50;;;;;;;5.92;76.77;100066.84;5106110;28;20215;-61
2022/01/31 07:44:12;;;;;;;3.00;1.43;;;;;;;6.04;76.08;100068.47;5108627;27;20300;-61
2022/01/31 07:46:41;;;;;;;3.83;1.10;;;;;;;6.10;76.22;100061.84;5102844;27;20221;-61
2022/01/31 07:49:09;;;;;;;7.00;1.20;;;;;;;6.07;76.06;100054.22;5118527;27;20297;-62
2022/01/31 07:51:40;;;;;;;3.53;1.13;;;;;;;6.13;76.34;100049.25;5107922;28;20248;-61
2022/01/31 07:54:08;;;;;;;3.60;1.43;;;;;;;5.84;77.24;100056.94;5109396;27;20210;-62
2022/01/31 07:56:37;;;;;;;5.10;1.80;;;;;;;6.08;76.50;100048.78;5110418;28;20242;-62
2022/01/31 07:59:05;;;;;;;2.40;1.20;;;;;;;6.27;75.39;100045.44;5106964;28;20498;-62
2022/01/31 08:01:34;;;;;;;4.67;1.63;;;;;;;6.38;75.03;100050.63;5102338;28;20265;-62
2022/01/31 08:04:02;;;;;;;4.03;1.43;;;;;;;6.59;74.12;100029.50;5104339;28;20288;-62
2022/01/31 08:06:30;;;;;;;4.00;1.50;;;;;;;6.41;75.68;100022.25;5102744;28;20264;-60
2022/01/31 08:08:58;;;;;;;4.97;1.63;;;;;;;6.68;76.42;100020.81;5110175;28;20330;-60
2022/01/31 08:11:31;;;;;;;5.53;1.60;;;;;;;6.90;74.87;100023.22;5100390;28;20630;-60
2022/01/31 08:14:02;;;;;;;3.43;1.37;;;;;;;6.90;74.26;100020.56;5101767;28;20399;-62
2022/01/31 08:16:30;;;;;;;4.73;1.60;;;;;;;6.70;74.49;100016.22;5107440;28;20238;-62
2022/01/31 08:18:59;;;;;;;5.73;1.50;;;;;;;6.55;74.83;100012.28;5111812;27;20205;-64
2022/01/31 08:21:27;;;;;;;2.40;1.17;;;;;;;6.71;74.30;100016.09;5116231;27;20215;-62
2022/01/31 08:23:55;;;;;;;3.30;0.90;;;;;;;6.41;75.60;100003.81;5106416;27;20307;-63
2022/01/31 08:26:23;;;;;;;3.17;1.00;;;;;;;6.61;74.66;100006.47;5112905;27;20599;-61
2022/01/31 08:28:56;;;;;;;2.07;0.80;;;;;;;6.74;73.93;100004.47;5109338;28;20555;-62
2022/01/31 08:31:29;;;;;;;2.53;0.80;;;;;;;6.59;74.04;100004.00;5106637;27;20214;-64
2022/01/31 08:34:07;;;;;;;1.97;0.90;;;;;;;6.45;74.62;99999.09;5120843;27;20208;-62
2022/01/31 08:36:36;;;;;;;1.77;0.90;;;;;;;6.54;74.49;99995.66;5109882;27;20299;-62
2022/01/31 08:39:09;;;;;;;2.60;0.90;;;;;;;6.38;74.58;99996.16;5108399;27;20213;-62
2022/01/31 08:41:39;;;;;;;4.03;1.13;;;;;;;6.50;74.25;99996.06;5107185;28;20203;-62
2022/01/31 08:44:07;;;;;;;2.50;0.90;;;;;;;6.46;73.91;99981.47;5111540;27;20214;-64
2022/01/31 08:46:39;;;;;;;3.00;1.43;;;;;;;6.64;73.92;99982.50;5112234;27;20237;-63
2022/01/31 08:49:07;;;;;;;4.67;1.37;;;;;;;6.54;74.29;99968.47;5104283;27;20207;-62
2022/01/31 08:51:37;;;;;;;3.10;1.20;;;;;;;6.62;74.19;99976.53;5111025;28;20202;-61
2022/01/31 08:54:06;;;;;;;5.70;1.17;;;;;;;6.69;73.93;99967.97;5108089;28;20225;-61
2022/01/31 08:56:40;;;;;;;4.87;1.23;;;;;;;6.51;74.05;99953.75;5108197;27;20211;-63
2022/01/31 08:59:08;;;;;;;2.73;1.10;;;;;;;6.59;74.21;99956.59;5110209;27;20631;-64
2022/01/31 09:01:37;;;;;;;4.27;1.17;;;;;;;6.68;73.78;99945.25;5112207;27;20348;-63
2022/01/31 09:04:08;;;;;;;3.40;1.10;;;;;;;6.77;73.29;99954.94;5109464;28;20236;-62
2022/01/31 09:06:37;;;;;;;3.97;1.00;;;;;;;6.91;73.04;99948.44;5112580;28;20286;-61
2022/01/31 09:09:08;;;;;;;4.13;1.20;;;;;;;6.96;72.90;99956.75;5110265;27;20674;-61
2022/01/31 09:11:37;;;;;;;3.30;1.13;;;;;;;6.85;73.58;99967.47;5110816;28;20619;-61
2022/01/31 09:14:05;;;;;;;6.40;1.30;;;;;;;6.78;73.84;99953.97;5102963;27;20795;-63
2022/01/31 09:16:33;;;;;;;4.70;1.20;;;;;;;6.66;73.71;99954.25;5107976;27;20219;-62
2022/01/31 09:19:02;;;;;;;6.77;1.30;;;;;;;6.89;73.32;99944.28;5112220;28;20239;-64
2022/01/31 09:21:30;;;;;;;5.13;1.40;;;;;;;6.90;72.94;99951.22;5110611;27;20595;-63
2022/01/31 09:23:59;;;;;;;5.60;1.40;;;;;;;6.89;73.15;99947.75;5110436;27;20231;-63
2022/01/31 09:26:27;;;;;;;4.97;1.07;;;;;;;6.99;72.80;99947.75;5110364;27;20230;-63
2022/01/31 09:28:56;;;;;;;6.13;1.20;;;;;;;6.97;72.83;99947.06;5109346;27;20658;-62
2022/01/31 09:31:24;;;;;;;6.10;1.60;;;;;;;7.01;72.72;99945.81;5121028;27;20651;-62
2022/01/31 09:33:52;;;;;;;3.60;1.17;;;;;;;7.11;72.51;99939.59;5105576;28;20233;-60
2022/01/31 09:36:22;;;;;;;3.60;1.20;;;;;;;7.43;71.30;99947.19;5104167;27;20251;-62
2022/01/31 09:38:50;;;;;;;4.43;1.10;;;;;;;8.57;67.92;99946.13;5102791;27;20261;-62
2022/01/31 09:41:23;;;;;;;5.70;1.17;;;;;;;8.98;64.27;99942.09;5106996;27;20795;-63
2022/01/31 09:44:05;;;;;;;6.60;1.43;;;;;;;11.98;57.50;99935.31;5110699;27;20209;-63
2022/01/31 09:49:23;;;;;;;8.27;1.30;;;;;;;9.27;62.85;99947.16;5109201;27;20224;-62
2022/01/31 09:51:51;;;;;;;4.30;1.10;;;;;;;8.76;64.41;99951.31;5097058;28;20364;-66
2022/01/31 09:54:19;;;;;;;6.00;1.77;;;;;;;8.22;66.32;99965.34;5106161;27;20206;-65
2022/01/31 09:56:48;;;;;;;2.70;1.17;;;;;;;8.18;66.92;99969.25;5097991;27;20217;-68
2022/01/31 09:59:18;;;;;;;4.47;1.43;;;;;;;7.94;67.75;99962.63;5110142;28;20324;-64
2022/01/31 10:01:49;;;;;;;3.07;0.97;;;;;;;7.84;68.07;99967.09;5102985;28;20266;-63
2022/01/31 10:04:19;;;;;;;4.73;1.77;;;;;;;7.93;67.97;99954.84;5109084;27;20211;-63
2022/01/31 10:06:49;;;;;;;3.70;1.30;;;;;;;8.10;67.39;99961.19;5107674;27;20241;-64
2022/01/31 10:09:18;;;;;;;3.87;1.67;;;;;;;7.90;68.26;99958.63;5093796;28;20673;-65
2022/01/31 10:11:50;;;;;;;3.60;0.90;;;;;;;7.65;69.71;99948.66;5111732;28;20217;-63
2022/01/31 10:17:09;;;;;;;3.60;1.10;;;;;;;7.59;69.65;99949.25;5100686;28;20207;-68
2022/01/31 10:19:51;;;;;;;4.30;1.73;;;;;;;7.54;69.94;99946.22;5115031;27;20205;-67
2022/01/31 10:22:20;;;;;;;5.77;1.17;;;;;;;8.64;67.89;99939.28;5116070;27;20233;-64
2022/01/31 10:24:50;;;;;;;4.63;1.53;;;;;;;9.56;63.27;99925.75;5108603;27;20309;-65
2022/01/31 10:27:22;;;;;;;5.10;1.03;;;;;;;9.02;65.04;99935.53;5117563;27;20228;-63
2022/01/31 10:29:52;;;;;;;5.03;1.00;;;;;;;8.75;66.06;99930.31;5111976;27;20276;-64
2022/01/31 10:32:27;;;;;;;3.07;0.90;;;;;;;9.19;65.65;99937.34;5096221;28;20215;-66
2022/01/31 10:34:58;;;;;;;4.20;1.00;;;;;;;9.39;64.58;99930.91;5105341;27;20217;-65
2022/01/31 10:37:29;;;;;;;3.70;1.00;;;;;;;9.64;64.04;99926.63;5105104;27;20216;-65
2022/01/31 10:54:25;;;;;;;3.97;0.80;;;;;;;8.22;65.57;99933.63;5106223;27;20220;-65
2022/01/31 10:56:55;;;;;;;3.80;0.80;;;;;;;7.83;65.79;99939.03;5102796;27;20321;-65
2022/01/31 10:59:28;;;;;;;2.20;0.70;;;;;;;7.98;64.92;99936.78;5108926;27;20206;-64
2022/01/31 11:01:58;;;;;;;3.40;0.90;;;;;;;8.09;64.56;99931.31;5102910;28;20258;-65
2022/01/31 11:04:34;;;;;;;4.83;1.10;;;;;;;8.16;64.34;99931.59;5108529;28;20289;-64
2022/01/31 11:07:04;;;;;;;2.30;0.90;;;;;;;8.21;63.69;99942.53;5100827;28;20621;-64
2022/01/31 11:09:32;;;;;;;3.00;1.07;;;;;;;8.00;64.79;99934.84;5107177;27;20237;-64
2022/01/31 11:12:01;;;;;;;4.00;0.90;;;;;;;8.09;64.01;99941.88;5106430;27;20217;-63
2022/01/31 11:14:30;;;;;;;4.57;0.77;;;;;;;8.11;63.80;99936.44;5101233;28;20293;-63
2022/01/31 11:16:58;;;;;;;6.00;1.17;;;;;;;8.48;63.88;99939.94;5107921;27;20637;-63
2022/01/31 12:53:47;;;;;;;2.60;0.60;;;;;;;7.60;64.89;99900.78;5016723;28;20235;-62
2022/01/31 12:56:29;;;;;;;3.40;0.77;;;;;;;7.68;64.39;99903.53;5010857;28;20216;-66
2022/01/31 12:59:11;;;;;;;2.40;0.70;;;;;;;7.82;64.47;99913.66;5020823;28;20719;-66
2022/01/31 13:01:41;;;;;;;3.53;0.93;;;;;;;7.65;63.42;99914.38;5020454;28;20209;-63
2022/01/31 13:04:13;;;;;;;2.20;0.57;;;;;;;7.84;62.74;99887.91;5026973;28;20219;-62
2022/01/31 13:06:44;;;;;;;3.67;0.60;;;;;;;7.76;62.46;99906.28;5025121;28;20231;-65
2022/01/31 13:09:22;;;;;;;3.10;0.53;;;;;;;7.95;62.10;99894.84;5028431;28;20247;-60
2022/01/31 13:11:53;;;;;;;2.43;0.60;;;;;;;7.68;62.71;99914.09;5026920;28;20217;-64
2022/01/31 13:14:24;;;;;;;6.47;1.20;;;;;;;7.77;62.33;99899.19;5024648;28;20298;-61
2022/01/31 13:17:11;;;;;;;3.63;0.60;;;;;;;7.61;63.17;99907.72;5014722;28;20204;-59
2022/01/31 13:19:41;;;;;;;2.60;0.47;;;;;;;7.77;63.30;99912.41;5027060;28;21062;-67
2022/01/31 13:22:13;;;;;;;2.40;0.60;;;;;;;7.68;62.98;99914.09;5026325;28;20243;-67
2022/01/31 13:24:44;;;;;;;3.17;0.70;;;;;;;7.75;62.63;99928.38;5025964;28;20235;-67
2022/01/31 13:27:14;;;;;;;3.53;0.73;;;;;;;8.15;65.35;99919.34;5026810;28;20723;-67
2022/01/31 13:30:02;;;;;;;2.77;0.60;;;;;;;8.08;62.70;99926.19;5023420;28;20212;-65
2022/01/31 13:32:33;;;;;;;2.33;0.50;;;;;;;7.77;63.40;99925.59;5027130;28;20229;-65
2022/01/31 13:35:08;;;;;;;2.83;0.53;;;;;;;7.90;62.82;99936.69;5027449;28;20192;-65
2022/01/31 13:37:52;;;;;;;4.53;0.40;;;;;;;7.86;62.42;99928.22;5024622;28;20236;-65